sensor_id;sensor_type;location;lat;lon;timestamp;P1;durP1;ratioP1;P2;durP2;ratioP2
5967;SDS011;3010;51.028;4.170;2023-09-18T00:02:07;11.80;;;10.73;;
5967;SDS011;3010;51.028;4.170;2023-09-18T00:04:34;12.43;;;10.53;;
5967;SDS011;3010;51.028;4.170;2023-09-18T00:07:00;12.30;;;11.10;;
5967;SDS011;3010;51.028;4.170;2023-09-18T00:09:27;12.20;;;11.10;;
5967;SDS011;3010;51.028;4.170;2023-09-18T00:11:54;13.13;;;11.82;;
5967;SDS011;3010;51.028;4.170;2023-09-18T00:14:21;12.33;;;11.17;;
5967;SDS011;3010;51.028;4.170;2023-09-18T00:16:48;13.20;;;12.00;;
5967;SDS011;3010;51.028;4.170;2023-09-18T00:19:14;11.83;;;10.77;;
5967;SDS011;3010;51.028;4.170;2023-09-18T00:21:41;10.93;;;9.93;;
5967;SDS011;3010;51.028;4.170;2023-09-18T00:24:07;12.25;;;11.10;;
5967;SDS011;3010;51.028;4.170;2023-09-18T00:26:34;12.40;;;10.80;;
5967;SDS011;3010;51.028;4.170;2023-09-18T00:29:00;10.60;;;9.63;;
5967;SDS011;3010;51.028;4.170;2023-09-18T00:31:27;10.63;;;9.77;;
5967;SDS011;3010;51.028;4.170;2023-09-18T00:33:54;11.43;;;9.60;;
5967;SDS011;3010;51.028;4.170;2023-09-18T00:36:20;14.03;;;9.73;;
5967;SDS011;3010;51.028;4.170;2023-09-18T00:38:47;9.60;;;8.70;;
5967;SDS011;3010;51.028;4.170;2023-09-18T00:41:13;12.60;;;11.27;;
5967;SDS011;3010;51.028;4.170;2023-09-18T00:43:40;12.50;;;10.53;;
5967;SDS011;3010;51.028;4.170;2023-09-18T00:46:07;15.83;;;10.37;;
5967;SDS011;3010;51.028;4.170;2023-09-18T00:48:33;13.23;;;10.70;;
5967;SDS011;3010;51.028;4.170;2023-09-18T00:51:00;12.90;;;10.87;;
5967;SDS011;3010;51.028;4.170;2023-09-18T00:53:26;12.07;;;10.30;;
5967;SDS011;3010;51.028;4.170;2023-09-18T00:55:53;17.77;;;11.13;;
5967;SDS011;3010;51.028;4.170;2023-09-18T00:58:20;14.20;;;10.17;;
5967;SDS011;3010;51.028;4.170;2023-09-18T01:00:46;11.33;;;10.33;;
5967;SDS011;3010;51.028;4.170;2023-09-18T01:03:13;14.68;;;12.30;;
5967;SDS011;3010;51.028;4.170;2023-09-18T01:05:39;13.17;;;10.70;;
5967;SDS011;3010;51.028;4.170;2023-09-18T01:08:06;11.03;;;9.93;;
5967;SDS011;3010;51.028;4.170;2023-09-18T01:10:34;14.57;;;10.53;;
5967;SDS011;3010;51.028;4.170;2023-09-18T01:13:02;10.83;;;9.57;;
5967;SDS011;3010;51.028;4.170;2023-09-18T01:15:39;13.00;;;9.67;;
5967;SDS011;3010;51.028;4.170;2023-09-18T01:18:01;10.70;;;9.63;;
5967;SDS011;3010;51.028;4.170;2023-09-18T01:20:27;11.63;;;9.27;;
5967;SDS011;3010;51.028;4.170;2023-09-18T01:22:54;11.80;;;9.07;;
5967;SDS011;3010;51.028;4.170;2023-09-18T01:25:20;15.57;;;9.60;;
5967;SDS011;3010;51.028;4.170;2023-09-18T01:27:47;10.30;;;9.40;;
5967;SDS011;3010;51.028;4.170;2023-09-18T01:30:14;13.00;;;10.57;;
5967;SDS011;3010;51.028;4.170;2023-09-18T01:32:40;9.97;;;9.03;;
5967;SDS011;3010;51.028;4.170;2023-09-18T01:35:07;10.40;;;9.43;;
5967;SDS011;3010;51.028;4.170;2023-09-18T01:37:33;10.40;;;9.10;;
5967;SDS011;3010;51.028;4.170;2023-09-18T01:40:00;10.07;;;8.63;;
5967;SDS011;3010;51.028;4.170;2023-09-18T01:42:27;11.37;;;8.70;;
5967;SDS011;3010;51.028;4.170;2023-09-18T01:44:53;10.00;;;9.00;;
5967;SDS011;3010;51.028;4.170;2023-09-18T01:47:20;10.67;;;8.43;;
5967;SDS011;3010;51.028;4.170;2023-09-18T01:49:46;10.97;;;8.60;;
5967;SDS011;3010;51.028;4.170;2023-09-18T01:52:13;12.37;;;8.73;;
5967;SDS011;3010;51.028;4.170;2023-09-18T01:54:39;9.43;;;8.43;;
5967;SDS011;3010;51.028;4.170;2023-09-18T01:57:06;12.18;;;9.77;;
5967;SDS011;3010;51.028;4.170;2023-09-18T01:59:33;10.03;;;8.37;;
5967;SDS011;3010;51.028;4.170;2023-09-18T02:02:00;11.00;;;8.60;;
5967;SDS011;3010;51.028;4.170;2023-09-18T02:04:26;10.37;;;7.50;;
5967;SDS011;3010;51.028;4.170;2023-09-18T02:06:53;8.90;;;8.10;;
5967;SDS011;3010;51.028;4.170;2023-09-18T02:09:19;9.00;;;7.43;;
5967;SDS011;3010;51.028;4.170;2023-09-18T02:11:46;10.43;;;7.57;;
5967;SDS011;3010;51.028;4.170;2023-09-18T02:14:13;8.40;;;7.47;;
5967;SDS011;3010;51.028;4.170;2023-09-18T02:16:40;8.40;;;7.50;;
5967;SDS011;3010;51.028;4.170;2023-09-18T02:19:12;10.60;;;7.17;;
5967;SDS011;3010;51.028;4.170;2023-09-18T02:21:38;10.43;;;6.90;;
5967;SDS011;3010;51.028;4.170;2023-09-18T02:24:05;8.73;;;7.67;;
5967;SDS011;3010;51.028;4.170;2023-09-18T02:26:31;8.47;;;7.67;;
5967;SDS011;3010;51.028;4.170;2023-09-18T02:28:59;7.33;;;6.73;;
5967;SDS011;3010;51.028;4.170;2023-09-18T02:31:24;8.03;;;7.33;;
5967;SDS011;3010;51.028;4.170;2023-09-18T02:33:51;7.40;;;6.80;;
5967;SDS011;3010;51.028;4.170;2023-09-18T02:36:18;7.87;;;6.57;;
5967;SDS011;3010;51.028;4.170;2023-09-18T02:38:44;7.70;;;6.80;;
5967;SDS011;3010;51.028;4.170;2023-09-18T02:41:11;7.00;;;6.47;;
5967;SDS011;3010;51.028;4.170;2023-09-18T02:43:37;6.50;;;5.90;;
5967;SDS011;3010;51.028;4.170;2023-09-18T02:46:04;6.40;;;5.90;;
5967;SDS011;3010;51.028;4.170;2023-09-18T02:48:31;6.93;;;5.63;;
5967;SDS011;3010;51.028;4.170;2023-09-18T02:50:58;7.70;;;6.17;;
5967;SDS011;3010;51.028;4.170;2023-09-18T02:53:24;7.43;;;5.70;;
5967;SDS011;3010;51.028;4.170;2023-09-18T02:55:51;6.17;;;5.57;;
5967;SDS011;3010;51.028;4.170;2023-09-18T02:58:17;6.00;;;5.60;;
5967;SDS011;3010;51.028;4.170;2023-09-18T03:00:44;7.25;;;6.37;;
5967;SDS011;3010;51.028;4.170;2023-09-18T03:03:10;6.50;;;5.90;;
5967;SDS011;3010;51.028;4.170;2023-09-18T03:05:37;6.85;;;5.95;;
5967;SDS011;3010;51.028;4.170;2023-09-18T03:08:03;8.63;;;6.10;;
5967;SDS011;3010;51.028;4.170;2023-09-18T03:10:37;6.27;;;5.67;;
5967;SDS011;3010;51.028;4.170;2023-09-18T03:13:02;7.37;;;6.67;;
5967;SDS011;3010;51.028;4.170;2023-09-18T03:15:29;6.50;;;6.00;;
5967;SDS011;3010;51.028;4.170;2023-09-18T03:17:56;7.17;;;6.37;;
5967;SDS011;3010;51.028;4.170;2023-09-18T03:20:23;9.23;;;6.77;;
5967;SDS011;3010;51.028;4.170;2023-09-18T03:22:50;7.67;;;6.97;;
5967;SDS011;3010;51.028;4.170;2023-09-18T03:25:15;9.30;;;6.90;;
5967;SDS011;3010;51.028;4.170;2023-09-18T03:27:42;7.13;;;6.27;;
5967;SDS011;3010;51.028;4.170;2023-09-18T03:30:09;10.03;;;6.27;;
5967;SDS011;3010;51.028;4.170;2023-09-18T03:32:35;8.10;;;6.80;;
5967;SDS011;3010;51.028;4.170;2023-09-18T03:35:02;8.00;;;5.93;;
5967;SDS011;3010;51.028;4.170;2023-09-18T03:37:28;8.07;;;6.13;;
5967;SDS011;3010;51.028;4.170;2023-09-18T03:39:55;6.07;;;4.90;;
5967;SDS011;3010;51.028;4.170;2023-09-18T03:42:22;6.13;;;4.83;;
5967;SDS011;3010;51.028;4.170;2023-09-18T03:44:48;7.67;;;4.53;;
5967;SDS011;3010;51.028;4.170;2023-09-18T03:47:15;4.83;;;4.43;;
5967;SDS011;3010;51.028;4.170;2023-09-18T03:49:41;4.90;;;4.13;;
5967;SDS011;3010;51.028;4.170;2023-09-18T03:52:11;7.10;;;4.43;;
5967;SDS011;3010;51.028;4.170;2023-09-18T03:54:37;7.47;;;4.40;;
5967;SDS011;3010;51.028;4.170;2023-09-18T03:57:04;5.33;;;4.10;;
5967;SDS011;3010;51.028;4.170;2023-09-18T03:59:30;5.10;;;4.57;;
5967;SDS011;3010;51.028;4.170;2023-09-18T04:01:57;5.82;;;4.60;;
5967;SDS011;3010;51.028;4.170;2023-09-18T04:04:24;9.03;;;5.17;;
5967;SDS011;3010;51.028;4.170;2023-09-18T04:06:50;5.83;;;4.93;;
5967;SDS011;3010;51.028;4.170;2023-09-18T04:09:17;5.13;;;4.63;;
5967;SDS011;3010;51.028;4.170;2023-09-18T04:11:43;7.50;;;5.33;;
5967;SDS011;3010;51.028;4.170;2023-09-18T04:14:10;7.87;;;5.07;;
5967;SDS011;3010;51.028;4.170;2023-09-18T04:16:37;6.57;;;4.67;;
5967;SDS011;3010;51.028;4.170;2023-09-18T04:19:03;5.30;;;4.90;;
5967;SDS011;3010;51.028;4.170;2023-09-18T04:21:30;5.50;;;5.00;;
5967;SDS011;3010;51.028;4.170;2023-09-18T04:23:56;5.20;;;4.67;;
5967;SDS011;3010;51.028;4.170;2023-09-18T04:26:23;7.10;;;4.87;;
5967;SDS011;3010;51.028;4.170;2023-09-18T04:28:50;4.73;;;4.33;;
5967;SDS011;3010;51.028;4.170;2023-09-18T04:31:16;9.30;;;4.50;;
5967;SDS011;3010;51.028;4.170;2023-09-18T04:33:43;4.53;;;4.13;;
5967;SDS011;3010;51.028;4.170;2023-09-18T04:36:09;5.97;;;4.00;;
5967;SDS011;3010;51.028;4.170;2023-09-18T04:38:36;4.40;;;3.93;;
5967;SDS011;3010;51.028;4.170;2023-09-18T04:41:03;3.30;;;3.10;;
5967;SDS011;3010;51.028;4.170;2023-09-18T04:43:29;3.83;;;3.50;;
5967;SDS011;3010;51.028;4.170;2023-09-18T04:45:56;4.40;;;3.60;;
5967;SDS011;3010;51.028;4.170;2023-09-18T04:48:22;3.97;;;3.47;;
5967;SDS011;3010;51.028;4.170;2023-09-18T04:50:49;3.40;;;3.20;;
5967;SDS011;3010;51.028;4.170;2023-09-18T04:53:15;8.80;;;3.63;;
5967;SDS011;3010;51.028;4.170;2023-09-18T04:55:42;4.30;;;3.33;;
5967;SDS011;3010;51.028;4.170;2023-09-18T04:58:09;3.70;;;3.40;;
5967;SDS011;3010;51.028;4.170;2023-09-18T05:00:35;3.17;;;2.93;;
5967;SDS011;3010;51.028;4.170;2023-09-18T05:03:02;8.03;;;3.60;;
5967;SDS011;3010;51.028;4.170;2023-09-18T05:05:28;2.87;;;2.70;;
5967;SDS011;3010;51.028;4.170;2023-09-18T05:07:55;3.13;;;2.90;;
5967;SDS011;3010;51.028;4.170;2023-09-18T05:10:22;3.93;;;2.60;;
5967;SDS011;3010;51.028;4.170;2023-09-18T05:12:48;3.13;;;2.70;;
5967;SDS011;3010;51.028;4.170;2023-09-18T05:15:15;6.90;;;2.63;;
5967;SDS011;3010;51.028;4.170;2023-09-18T05:17:42;4.53;;;3.07;;
5967;SDS011;3010;51.028;4.170;2023-09-18T05:20:08;2.70;;;2.60;;
5967;SDS011;3010;51.028;4.170;2023-09-18T05:22:35;8.63;;;4.37;;
5967;SDS011;3010;51.028;4.170;2023-09-18T05:25:01;3.37;;;3.10;;
5967;SDS011;3010;51.028;4.170;2023-09-18T05:27:28;3.57;;;3.27;;
5967;SDS011;3010;51.028;4.170;2023-09-18T05:29:54;2.80;;;2.67;;
5967;SDS011;3010;51.028;4.170;2023-09-18T05:32:21;3.53;;;2.90;;
5967;SDS011;3010;51.028;4.170;2023-09-18T05:34:48;3.40;;;3.15;;
5967;SDS011;3010;51.028;4.170;2023-09-18T05:37:14;3.27;;;2.77;;
5967;SDS011;3010;51.028;4.170;2023-09-18T05:39:41;3.20;;;3.00;;
5967;SDS011;3010;51.028;4.170;2023-09-18T05:42:07;6.77;;;3.30;;
5967;SDS011;3010;51.028;4.170;2023-09-18T05:44:34;3.77;;;2.77;;
5967;SDS011;3010;51.028;4.170;2023-09-18T05:47:01;2.80;;;2.57;;
5967;SDS011;3010;51.028;4.170;2023-09-18T05:49:27;2.93;;;2.60;;
5967;SDS011;3010;51.028;4.170;2023-09-18T05:51:54;4.43;;;3.10;;
5967;SDS011;3010;51.028;4.170;2023-09-18T05:54:20;3.90;;;2.97;;
5967;SDS011;3010;51.028;4.170;2023-09-18T05:56:47;3.57;;;2.80;;
5967;SDS011;3010;51.028;4.170;2023-09-18T05:59:13;2.93;;;2.73;;
5967;SDS011;3010;51.028;4.170;2023-09-18T06:01:40;2.90;;;2.73;;
5967;SDS011;3010;51.028;4.170;2023-09-18T06:04:07;2.83;;;2.63;;
5967;SDS011;3010;51.028;4.170;2023-09-18T06:06:33;3.27;;;3.07;;
5967;SDS011;3010;51.028;4.170;2023-09-18T06:09:00;2.80;;;2.70;;
5967;SDS011;3010;51.028;4.170;2023-09-18T06:11:26;3.00;;;2.73;;
5967;SDS011;3010;51.028;4.170;2023-09-18T06:13:53;2.90;;;2.70;;
5967;SDS011;3010;51.028;4.170;2023-09-18T06:16:20;2.80;;;2.63;;
5967;SDS011;3010;51.028;4.170;2023-09-18T06:18:46;2.97;;;2.77;;
5967;SDS011;3010;51.028;4.170;2023-09-18T06:21:13;3.93;;;3.57;;
5967;SDS011;3010;51.028;4.170;2023-09-18T06:23:39;4.10;;;2.97;;
5967;SDS011;3010;51.028;4.170;2023-09-18T06:26:06;4.00;;;2.93;;
5967;SDS011;3010;51.028;4.170;2023-09-18T06:28:33;3.20;;;2.87;;
5967;SDS011;3010;51.028;4.170;2023-09-18T06:30:59;3.37;;;3.17;;
5967;SDS011;3010;51.028;4.170;2023-09-18T06:33:26;3.37;;;3.17;;
5967;SDS011;3010;51.028;4.170;2023-09-18T06:35:52;4.73;;;3.07;;
5967;SDS011;3010;51.028;4.170;2023-09-18T06:38:19;3.10;;;2.90;;
5967;SDS011;3010;51.028;4.170;2023-09-18T06:40:46;2.83;;;2.73;;
5967;SDS011;3010;51.028;4.170;2023-09-18T06:43:12;3.73;;;3.40;;
5967;SDS011;3010;51.028;4.170;2023-09-18T06:45:39;6.73;;;3.73;;
5967;SDS011;3010;51.028;4.170;2023-09-18T06:48:05;3.67;;;3.20;;
5967;SDS011;3010;51.028;4.170;2023-09-18T06:50:32;3.70;;;3.40;;
5967;SDS011;3010;51.028;4.170;2023-09-18T06:52:59;5.33;;;3.27;;
5967;SDS011;3010;51.028;4.170;2023-09-18T06:55:25;3.97;;;3.27;;
5967;SDS011;3010;51.028;4.170;2023-09-18T06:57:52;4.37;;;3.70;;
5967;SDS011;3010;51.028;4.170;2023-09-18T07:00:18;4.17;;;3.80;;
5967;SDS011;3010;51.028;4.170;2023-09-18T07:02:45;5.60;;;3.70;;
5967;SDS011;3010;51.028;4.170;2023-09-18T07:05:12;3.73;;;3.43;;
5967;SDS011;3010;51.028;4.170;2023-09-18T07:07:38;5.10;;;3.27;;
5967;SDS011;3010;51.028;4.170;2023-09-18T07:10:05;4.27;;;4.00;;
5967;SDS011;3010;51.028;4.170;2023-09-18T07:12:32;3.83;;;3.50;;
5967;SDS011;3010;51.028;4.170;2023-09-18T07:15:00;6.30;;;3.60;;
5967;SDS011;3010;51.028;4.170;2023-09-18T07:17:25;4.10;;;3.70;;
5967;SDS011;3010;51.028;4.170;2023-09-18T07:19:51;3.90;;;3.53;;
5967;SDS011;3010;51.028;4.170;2023-09-18T07:22:18;6.00;;;4.37;;
5967;SDS011;3010;51.028;4.170;2023-09-18T07:24:44;4.90;;;4.50;;
5967;SDS011;3010;51.028;4.170;2023-09-18T07:27:11;5.47;;;4.30;;
5967;SDS011;3010;51.028;4.170;2023-09-18T07:29:38;5.80;;;4.60;;
5967;SDS011;3010;51.028;4.170;2023-09-18T07:32:04;5.07;;;4.53;;
5967;SDS011;3010;51.028;4.170;2023-09-18T07:34:31;5.13;;;4.83;;
5967;SDS011;3010;51.028;4.170;2023-09-18T07:36:57;8.50;;;4.60;;
5967;SDS011;3010;51.028;4.170;2023-09-18T07:39:24;5.07;;;4.53;;
5967;SDS011;3010;51.028;4.170;2023-09-18T07:41:51;5.40;;;4.40;;
5967;SDS011;3010;51.028;4.170;2023-09-18T07:44:20;6.40;;;4.90;;
5967;SDS011;3010;51.028;4.170;2023-09-18T07:46:47;5.93;;;4.20;;
5967;SDS011;3010;51.028;4.170;2023-09-18T07:49:13;4.55;;;4.22;;
5967;SDS011;3010;51.028;4.170;2023-09-18T07:51:40;5.05;;;4.55;;
5967;SDS011;3010;51.028;4.170;2023-09-18T07:54:06;5.67;;;4.20;;
5967;SDS011;3010;51.028;4.170;2023-09-18T07:56:33;4.47;;;4.20;;
5967;SDS011;3010;51.028;4.170;2023-09-18T07:59:00;4.53;;;4.15;;
5967;SDS011;3010;51.028;4.170;2023-09-18T08:01:26;6.93;;;4.17;;
5967;SDS011;3010;51.028;4.170;2023-09-18T08:03:53;5.67;;;3.77;;
5967;SDS011;3010;51.028;4.170;2023-09-18T08:06:20;4.23;;;3.90;;
5967;SDS011;3010;51.028;4.170;2023-09-18T08:08:46;6.30;;;4.03;;
5967;SDS011;3010;51.028;4.170;2023-09-18T08:11:13;5.13;;;4.40;;
5967;SDS011;3010;51.028;4.170;2023-09-18T08:13:39;4.00;;;3.70;;
5967;SDS011;3010;51.028;4.170;2023-09-18T08:16:06;4.20;;;3.83;;
5967;SDS011;3010;51.028;4.170;2023-09-18T08:18:32;5.13;;;3.60;;
5967;SDS011;3010;51.028;4.170;2023-09-18T08:20:59;6.00;;;4.10;;
5967;SDS011;3010;51.028;4.170;2023-09-18T08:23:26;5.67;;;3.83;;
5967;SDS011;3010;51.028;4.170;2023-09-18T08:25:52;4.80;;;3.47;;
5967;SDS011;3010;51.028;4.170;2023-09-18T08:28:19;5.87;;;4.00;;
5967;SDS011;3010;51.028;4.170;2023-09-18T08:30:45;4.63;;;4.00;;
5967;SDS011;3010;51.028;4.170;2023-09-18T08:33:12;4.23;;;3.87;;
5967;SDS011;3010;51.028;4.170;2023-09-18T08:35:39;7.93;;;4.60;;
5967;SDS011;3010;51.028;4.170;2023-09-18T08:38:05;4.23;;;3.83;;
5967;SDS011;3010;51.028;4.170;2023-09-18T08:40:33;4.45;;;3.72;;
5967;SDS011;3010;51.028;4.170;2023-09-18T08:43:01;6.33;;;4.30;;
5967;SDS011;3010;51.028;4.170;2023-09-18T08:48:09;7.22;;;3.95;;
5967;SDS011;3010;51.028;4.170;2023-09-18T08:50:36;4.70;;;4.30;;
5967;SDS011;3010;51.028;4.170;2023-09-18T08:53:02;5.15;;;4.40;;
5967;SDS011;3010;51.028;4.170;2023-09-18T08:55:29;5.43;;;3.70;;
5967;SDS011;3010;51.028;4.170;2023-09-18T08:57:55;5.57;;;3.87;;
5967;SDS011;3010;51.028;4.170;2023-09-18T09:00:22;5.53;;;4.07;;
5967;SDS011;3010;51.028;4.170;2023-09-18T09:02:49;5.50;;;4.00;;
5967;SDS011;3010;51.028;4.170;2023-09-18T09:05:15;6.13;;;4.40;;
5967;SDS011;3010;51.028;4.170;2023-09-18T09:07:42;5.97;;;4.80;;
5967;SDS011;3010;51.028;4.170;2023-09-18T09:10:09;6.00;;;5.07;;
5967;SDS011;3010;51.028;4.170;2023-09-18T09:15:16;5.93;;;4.57;;
5967;SDS011;3010;51.028;4.170;2023-09-18T09:17:43;6.50;;;4.70;;
5967;SDS011;3010;51.028;4.170;2023-09-18T09:20:13;4.83;;;4.40;;
5967;SDS011;3010;51.028;4.170;2023-09-18T09:22:39;4.50;;;4.30;;
5967;SDS011;3010;51.028;4.170;2023-09-18T09:25:28;9.17;;;5.17;;
5967;SDS011;3010;51.028;4.170;2023-09-18T09:27:48;5.30;;;4.80;;
5967;SDS011;3010;51.028;4.170;2023-09-18T09:30:21;5.10;;;4.60;;
5967;SDS011;3010;51.028;4.170;2023-09-18T09:32:47;6.50;;;4.60;;
5967;SDS011;3010;51.028;4.170;2023-09-18T09:35:18;8.35;;;4.97;;
5967;SDS011;3010;51.028;4.170;2023-09-18T09:37:40;4.40;;;4.10;;
5967;SDS011;3010;51.028;4.170;2023-09-18T09:40:07;4.77;;;4.37;;
5967;SDS011;3010;51.028;4.170;2023-09-18T09:42:39;4.93;;;4.43;;
5967;SDS011;3010;51.028;4.170;2023-09-18T09:45:10;6.62;;;4.20;;
5967;SDS011;3010;51.028;4.170;2023-09-18T09:47:33;4.73;;;4.33;;
5967;SDS011;3010;51.028;4.170;2023-09-18T09:50:11;5.83;;;5.20;;
5967;SDS011;3010;51.028;4.170;2023-09-18T09:52:44;4.60;;;4.20;;
5967;SDS011;3010;51.028;4.170;2023-09-18T09:55:19;5.27;;;3.90;;
5967;SDS011;3010;51.028;4.170;2023-09-18T09:57:48;6.03;;;3.97;;
5967;SDS011;3010;51.028;4.170;2023-09-18T10:00:14;4.20;;;3.80;;
5967;SDS011;3010;51.028;4.170;2023-09-18T10:02:57;8.33;;;4.50;;
5967;SDS011;3010;51.028;4.170;2023-09-18T10:05:23;5.20;;;3.73;;
5967;SDS011;3010;51.028;4.170;2023-09-18T10:07:49;6.13;;;4.13;;
5967;SDS011;3010;51.028;4.170;2023-09-18T10:10:15;6.03;;;3.90;;
5967;SDS011;3010;51.028;4.170;2023-09-18T10:12:42;7.53;;;4.40;;
5967;SDS011;3010;51.028;4.170;2023-09-18T10:15:09;6.63;;;4.00;;
5967;SDS011;3010;51.028;4.170;2023-09-18T10:17:35;4.62;;;4.22;;
5967;SDS011;3010;51.028;4.170;2023-09-18T10:20:06;4.40;;;4.13;;
5967;SDS011;3010;51.028;4.170;2023-09-18T10:22:38;4.65;;;4.22;;
5967;SDS011;3010;51.028;4.170;2023-09-18T10:25:10;4.00;;;3.70;;
5967;SDS011;3010;51.028;4.170;2023-09-18T10:27:33;7.43;;;4.27;;
5967;SDS011;3010;51.028;4.170;2023-09-18T10:30:00;4.50;;;4.20;;
5967;SDS011;3010;51.028;4.170;2023-09-18T10:32:26;4.12;;;3.83;;
5967;SDS011;3010;51.028;4.170;2023-09-18T10:34:53;4.20;;;3.80;;
5967;SDS011;3010;51.028;4.170;2023-09-18T10:37:20;6.30;;;4.00;;
5967;SDS011;3010;51.028;4.170;2023-09-18T10:39:46;5.20;;;3.30;;
5967;SDS011;3010;51.028;4.170;2023-09-18T10:42:13;7.77;;;3.30;;
5967;SDS011;3010;51.028;4.170;2023-09-18T10:44:39;3.30;;;3.10;;
5967;SDS011;3010;51.028;4.170;2023-09-18T10:47:06;4.10;;;3.40;;
5967;SDS011;3010;51.028;4.170;2023-09-18T10:49:33;4.57;;;3.37;;
5967;SDS011;3010;51.028;4.170;2023-09-18T10:51:59;4.50;;;3.27;;
5967;SDS011;3010;51.028;4.170;2023-09-18T10:54:26;4.87;;;3.47;;
5967;SDS011;3010;51.028;4.170;2023-09-18T10:56:52;4.43;;;3.40;;
5967;SDS011;3010;51.028;4.170;2023-09-18T10:59:19;4.30;;;3.53;;
5967;SDS011;3010;51.028;4.170;2023-09-18T11:01:46;6.13;;;3.23;;
5967;SDS011;3010;51.028;4.170;2023-09-18T11:04:12;3.20;;;2.90;;
5967;SDS011;3010;51.028;4.170;2023-09-18T11:09:21;3.40;;;3.10;;
5967;SDS011;3010;51.028;4.170;2023-09-18T11:11:52;5.43;;;3.23;;
5967;SDS011;3010;51.028;4.170;2023-09-18T11:14:19;3.37;;;2.97;;
5967;SDS011;3010;51.028;4.170;2023-09-18T11:16:46;3.13;;;2.83;;
5967;SDS011;3010;51.028;4.170;2023-09-18T11:19:12;3.00;;;2.90;;
5967;SDS011;3010;51.028;4.170;2023-09-18T11:21:39;7.03;;;3.83;;
5967;SDS011;3010;51.028;4.170;2023-09-18T11:24:06;3.10;;;2.90;;
5967;SDS011;3010;51.028;4.170;2023-09-18T11:26:41;5.73;;;3.27;;
5967;SDS011;3010;51.028;4.170;2023-09-18T11:29:08;3.45;;;3.10;;
5967;SDS011;3010;51.028;4.170;2023-09-18T11:31:44;4.37;;;2.90;;
5967;SDS011;3010;51.028;4.170;2023-09-18T11:34:28;3.47;;;3.23;;
5967;SDS011;3010;51.028;4.170;2023-09-18T11:36:54;2.90;;;2.80;;
5967;SDS011;3010;51.028;4.170;2023-09-18T11:39:34;4.13;;;2.70;;
5967;SDS011;3010;51.028;4.170;2023-09-18T11:42:12;4.63;;;3.00;;
5967;SDS011;3010;51.028;4.170;2023-09-18T11:44:38;3.30;;;2.80;;
5967;SDS011;3010;51.028;4.170;2023-09-18T11:47:09;3.00;;;2.87;;
5967;SDS011;3010;51.028;4.170;2023-09-18T11:49:34;4.67;;;2.77;;
5967;SDS011;3010;51.028;4.170;2023-09-18T11:52:01;3.43;;;3.00;;
5967;SDS011;3010;51.028;4.170;2023-09-18T11:54:27;3.33;;;3.03;;
5967;SDS011;3010;51.028;4.170;2023-09-18T11:56:54;3.97;;;2.70;;
5967;SDS011;3010;51.028;4.170;2023-09-18T11:59:33;3.63;;;2.87;;
5967;SDS011;3010;51.028;4.170;2023-09-18T12:01:59;3.47;;;2.50;;
5967;SDS011;3010;51.028;4.170;2023-09-18T12:04:28;3.43;;;2.77;;
5967;SDS011;3010;51.028;4.170;2023-09-18T12:06:55;3.27;;;2.77;;
5967;SDS011;3010;51.028;4.170;2023-09-18T12:09:21;4.15;;;2.90;;
5967;SDS011;3010;51.028;4.170;2023-09-18T12:11:48;3.30;;;3.10;;
5967;SDS011;3010;51.028;4.170;2023-09-18T12:14:18;6.83;;;2.80;;
5967;SDS011;3010;51.028;4.170;2023-09-18T12:16:41;6.97;;;2.87;;
5967;SDS011;3010;51.028;4.170;2023-09-18T12:19:08;5.30;;;3.17;;
5967;SDS011;3010;51.028;4.170;2023-09-18T12:21:40;2.87;;;2.70;;
5967;SDS011;3010;51.028;4.170;2023-09-18T12:24:12;4.17;;;2.90;;
5967;SDS011;3010;51.028;4.170;2023-09-18T12:26:34;10.20;;;3.67;;
5967;SDS011;3010;51.028;4.170;2023-09-18T12:29:00;4.57;;;2.72;;
5967;SDS011;3010;51.028;4.170;2023-09-18T12:31:27;4.70;;;3.23;;
5967;SDS011;3010;51.028;4.170;2023-09-18T12:33:53;4.70;;;3.27;;
5967;SDS011;3010;51.028;4.170;2023-09-18T12:36:20;6.90;;;2.93;;
5967;SDS011;3010;51.028;4.170;2023-09-18T12:38:56;2.80;;;2.60;;
5967;SDS011;3010;51.028;4.170;2023-09-18T12:41:23;3.87;;;2.67;;
5967;SDS011;3010;51.028;4.170;2023-09-18T12:43:48;3.53;;;2.27;;
5967;SDS011;3010;51.028;4.170;2023-09-18T12:46:15;2.07;;;1.97;;
5967;SDS011;3010;51.028;4.170;2023-09-18T12:48:42;2.50;;;2.30;;
5967;SDS011;3010;51.028;4.170;2023-09-18T12:51:08;3.10;;;2.40;;
5967;SDS011;3010;51.028;4.170;2023-09-18T12:53:35;3.30;;;2.20;;
5967;SDS011;3010;51.028;4.170;2023-09-18T12:56:11;3.97;;;2.50;;
5967;SDS011;3010;51.028;4.170;2023-09-18T12:58:34;3.77;;;2.50;;
5967;SDS011;3010;51.028;4.170;2023-09-18T13:01:03;4.00;;;2.40;;
5967;SDS011;3010;51.028;4.170;2023-09-18T13:03:27;2.50;;;2.30;;
5967;SDS011;3010;51.028;4.170;2023-09-18T13:06:05;4.23;;;2.30;;
5967;SDS011;3010;51.028;4.170;2023-09-18T13:08:23;3.67;;;2.30;;
5967;SDS011;3010;51.028;4.170;2023-09-18T13:10:49;2.67;;;2.47;;
5967;SDS011;3010;51.028;4.170;2023-09-18T13:13:16;4.00;;;2.10;;
5967;SDS011;3010;51.028;4.170;2023-09-18T13:15:42;4.30;;;2.30;;
5967;SDS011;3010;51.028;4.170;2023-09-18T13:18:09;8.60;;;1.97;;
5967;SDS011;3010;51.028;4.170;2023-09-18T13:20:35;2.20;;;2.10;;
5967;SDS011;3010;51.028;4.170;2023-09-18T13:23:02;4.10;;;2.20;;
5967;SDS011;3010;51.028;4.170;2023-09-18T13:25:32;2.83;;;2.13;;
5967;SDS011;3010;51.028;4.170;2023-09-18T13:28:01;2.75;;;2.20;;
5967;SDS011;3010;51.028;4.170;2023-09-18T13:30:27;5.80;;;2.97;;
5967;SDS011;3010;51.028;4.170;2023-09-18T13:33:01;2.07;;;1.97;;
5967;SDS011;3010;51.028;4.170;2023-09-18T13:35:20;2.40;;;2.30;;
5967;SDS011;3010;51.028;4.170;2023-09-18T13:37:47;1.87;;;1.77;;
5967;SDS011;3010;51.028;4.170;2023-09-18T13:40:13;3.33;;;1.90;;
5967;SDS011;3010;51.028;4.170;2023-09-18T13:42:40;4.40;;;1.90;;
5967;SDS011;3010;51.028;4.170;2023-09-18T13:45:07;3.90;;;1.87;;
5967;SDS011;3010;51.028;4.170;2023-09-18T13:47:34;5.60;;;2.30;;
5967;SDS011;3010;51.028;4.170;2023-09-18T13:50:00;7.90;;;2.20;;
5967;SDS011;3010;51.028;4.170;2023-09-18T13:52:27;2.50;;;2.00;;
5967;SDS011;3010;51.028;4.170;2023-09-18T13:54:53;1.80;;;1.70;;
5967;SDS011;3010;51.028;4.170;2023-09-18T13:57:20;2.70;;;1.87;;
5967;SDS011;3010;51.028;4.170;2023-09-18T13:59:46;8.00;;;2.60;;
5967;SDS011;3010;51.028;4.170;2023-09-18T14:02:13;3.37;;;2.07;;
5967;SDS011;3010;51.028;4.170;2023-09-18T14:04:39;3.00;;;2.20;;
5967;SDS011;3010;51.028;4.170;2023-09-18T14:07:06;3.50;;;2.27;;
5967;SDS011;3010;51.028;4.170;2023-09-18T14:09:33;3.03;;;1.90;;
5967;SDS011;3010;51.028;4.170;2023-09-18T14:11:59;4.03;;;2.30;;
5967;SDS011;3010;51.028;4.170;2023-09-18T14:14:26;6.37;;;2.53;;
5967;SDS011;3010;51.028;4.170;2023-09-18T14:16:52;3.90;;;1.93;;
5967;SDS011;3010;51.028;4.170;2023-09-18T14:19:19;1.97;;;1.50;;
5967;SDS011;3010;51.028;4.170;2023-09-18T14:21:46;1.93;;;1.80;;
5967;SDS011;3010;51.028;4.170;2023-09-18T14:24:12;2.27;;;2.07;;
5967;SDS011;3010;51.028;4.170;2023-09-18T14:26:39;4.53;;;2.40;;
5967;SDS011;3010;51.028;4.170;2023-09-18T14:29:08;3.08;;;2.78;;
5967;SDS011;3010;51.028;4.170;2023-09-18T14:31:36;2.67;;;2.57;;
5967;SDS011;3010;51.028;4.170;2023-09-18T14:34:04;3.50;;;2.80;;
5967;SDS011;3010;51.028;4.170;2023-09-18T14:36:34;3.90;;;2.93;;
5967;SDS011;3010;51.028;4.170;2023-09-18T14:39:00;2.90;;;2.80;;
5967;SDS011;3010;51.028;4.170;2023-09-18T14:41:27;3.55;;;3.08;;
5967;SDS011;3010;51.028;4.170;2023-09-18T14:43:54;4.10;;;3.27;;
5967;SDS011;3010;51.028;4.170;2023-09-18T14:46:20;5.33;;;3.27;;
5967;SDS011;3010;51.028;4.170;2023-09-18T14:48:47;7.43;;;3.17;;
5967;SDS011;3010;51.028;4.170;2023-09-18T14:51:13;3.93;;;3.30;;
5967;SDS011;3010;51.028;4.170;2023-09-18T14:53:40;4.97;;;3.47;;
5967;SDS011;3010;51.028;4.170;2023-09-18T14:56:07;3.60;;;3.40;;
5967;SDS011;3010;51.028;4.170;2023-09-18T14:58:33;4.27;;;3.70;;
5967;SDS011;3010;51.028;4.170;2023-09-18T15:01:00;3.80;;;3.60;;
5967;SDS011;3010;51.028;4.170;2023-09-18T15:03:26;3.03;;;2.80;;
5967;SDS011;3010;51.028;4.170;2023-09-18T15:05:53;3.03;;;2.83;;
5967;SDS011;3010;51.028;4.170;2023-09-18T15:08:19;3.07;;;2.90;;
5967;SDS011;3010;51.028;4.170;2023-09-18T15:10:46;3.00;;;2.67;;
5967;SDS011;3010;51.028;4.170;2023-09-18T15:13:13;3.00;;;2.90;;
5967;SDS011;3010;51.028;4.170;2023-09-18T15:15:40;2.60;;;2.47;;
5967;SDS011;3010;51.028;4.170;2023-09-18T15:18:06;3.97;;;3.00;;
5967;SDS011;3010;51.028;4.170;2023-09-18T15:20:33;2.77;;;2.57;;